sensor_id;sensor_type;location;lat;lon;timestamp;P1;durP1;ratioP1;P2;durP2;ratioP2
70780;SDS011;59514;48.810;2.134;2022-09-23T00:00:43;7.78;;;3.45;;
70780;SDS011;59514;48.810;2.134;2022-09-23T00:03:09;3.85;;;3.10;;
70780;SDS011;59514;48.810;2.134;2022-09-23T00:05:35;3.40;;;2.33;;
70780;SDS011;59514;48.810;2.134;2022-09-23T00:08:06;6.03;;;2.70;;
70780;SDS011;59514;48.810;2.134;2022-09-23T00:10:35;5.40;;;3.40;;
70780;SDS011;59514;48.810;2.134;2022-09-23T00:13:01;3.92;;;2.80;;
70780;SDS011;59514;48.810;2.134;2022-09-23T00:15:27;4.38;;;2.88;;
70780;SDS011;59514;48.810;2.134;2022-09-23T00:17:54;4.90;;;3.30;;
70780;SDS011;59514;48.810;2.134;2022-09-23T00:20:20;4.40;;;3.00;;
70780;SDS011;59514;48.810;2.134;2022-09-23T00:22:46;5.30;;;3.13;;
70780;SDS011;59514;48.810;2.134;2022-09-23T00:25:11;5.32;;;2.80;;
70780;SDS011;59514;48.810;2.134;2022-09-23T00:27:37;5.55;;;3.15;;
70780;SDS011;59514;48.810;2.134;2022-09-23T00:30:04;7.00;;;3.03;;
70780;SDS011;59514;48.810;2.134;2022-09-23T00:32:31;5.53;;;2.97;;
70780;SDS011;59514;48.810;2.134;2022-09-23T00:34:57;8.05;;;2.65;;
70780;SDS011;59514;48.810;2.134;2022-09-23T00:37:22;6.82;;;2.67;;
70780;SDS011;59514;48.810;2.134;2022-09-23T00:39:48;5.90;;;2.60;;
70780;SDS011;59514;48.810;2.134;2022-09-23T00:42:17;7.07;;;2.67;;
70780;SDS011;59514;48.810;2.134;2022-09-23T00:44:48;6.33;;;3.03;;
70780;SDS011;59514;48.810;2.134;2022-09-23T00:52:44;3.72;;;2.78;;
70780;SDS011;59514;48.810;2.134;2022-09-23T00:55:15;8.57;;;2.95;;
70780;SDS011;59514;48.810;2.134;2022-09-23T00:57:47;4.55;;;2.63;;
70780;SDS011;59514;48.810;2.134;2022-09-23T01:00:13;3.92;;;2.40;;
70780;SDS011;59514;48.810;2.134;2022-09-23T01:02:39;4.00;;;2.60;;
70780;SDS011;59514;48.810;2.134;2022-09-23T01:05:05;3.72;;;2.67;;
70780;SDS011;59514;48.810;2.134;2022-09-23T01:07:31;4.35;;;2.70;;
70780;SDS011;59514;48.810;2.134;2022-09-23T01:09:57;3.70;;;2.17;;
70780;SDS011;59514;48.810;2.134;2022-09-23T01:12:37;4.93;;;2.78;;
70780;SDS011;59514;48.810;2.134;2022-09-23T01:15:27;6.63;;;2.65;;
70780;SDS011;59514;48.810;2.134;2022-09-23T01:32:09;3.10;;;2.10;;
70780;SDS011;59514;48.810;2.134;2022-09-23T01:34:48;3.63;;;2.17;;
70780;SDS011;59514;48.810;2.134;2022-09-23T01:37:25;5.32;;;2.95;;
70780;SDS011;59514;48.810;2.134;2022-09-23T01:40:15;4.72;;;2.28;;
70780;SDS011;59514;48.810;2.134;2022-09-23T01:42:49;3.45;;;1.92;;
70780;SDS011;59514;48.810;2.134;2022-09-23T01:45:34;4.03;;;2.50;;
70780;SDS011;59514;48.810;2.134;2022-09-23T01:50:55;3.15;;;2.20;;
70780;SDS011;59514;48.810;2.134;2022-09-23T01:59:20;2.35;;;2.05;;
70780;SDS011;59514;48.810;2.134;2022-09-23T02:04:33;3.78;;;1.95;;
70780;SDS011;59514;48.810;2.134;2022-09-23T02:07:09;4.38;;;2.10;;
70780;SDS011;59514;48.810;2.134;2022-09-23T02:09:41;4.75;;;2.60;;
70780;SDS011;59514;48.810;2.134;2022-09-23T02:12:12;4.30;;;2.10;;
70780;SDS011;59514;48.810;2.134;2022-09-23T02:14:48;2.95;;;1.80;;
70780;SDS011;59514;48.810;2.134;2022-09-23T02:17:20;2.90;;;2.13;;
70780;SDS011;59514;48.810;2.134;2022-09-23T02:19:53;3.25;;;2.10;;
70780;SDS011;59514;48.810;2.134;2022-09-23T02:23:25;3.20;;;1.80;;
70780;SDS011;59514;48.810;2.134;2022-09-23T02:25:34;4.35;;;1.83;;
70780;SDS011;59514;48.810;2.134;2022-09-23T02:28:10;5.15;;;2.10;;
70780;SDS011;59514;48.810;2.134;2022-09-23T02:31:02;3.83;;;1.77;;
70780;SDS011;59514;48.810;2.134;2022-09-23T02:33:37;2.70;;;1.73;;
70780;SDS011;59514;48.810;2.134;2022-09-23T02:36:16;2.33;;;1.98;;
70780;SDS011;59514;48.810;2.134;2022-09-23T02:38:52;2.92;;;1.70;;
70780;SDS011;59514;48.810;2.134;2022-09-23T02:41:26;2.60;;;2.05;;
70780;SDS011;59514;48.810;2.134;2022-09-23T02:46:26;3.33;;;2.13;;
70780;SDS011;59514;48.810;2.134;2022-09-23T02:51:35;4.18;;;1.90;;
70780;SDS011;59514;48.810;2.134;2022-09-23T02:54:02;4.47;;;2.10;;
70780;SDS011;59514;48.810;2.134;2022-09-23T02:56:31;2.88;;;1.90;;
70780;SDS011;59514;48.810;2.134;2022-09-23T02:58:57;4.75;;;2.25;;
70780;SDS011;59514;48.810;2.134;2022-09-23T03:09:35;2.05;;;1.85;;
70780;SDS011;59514;48.810;2.134;2022-09-23T03:12:12;2.65;;;1.90;;
70780;SDS011;59514;48.810;2.134;2022-09-23T03:17:37;3.22;;;1.75;;
70780;SDS011;59514;48.810;2.134;2022-09-23T03:20:19;3.53;;;1.90;;
70780;SDS011;59514;48.810;2.134;2022-09-23T03:22:55;2.72;;;1.73;;
70780;SDS011;59514;48.810;2.134;2022-09-23T03:25:25;3.00;;;1.80;;
70780;SDS011;59514;48.810;2.134;2022-09-23T03:27:55;2.40;;;1.70;;
70780;SDS011;59514;48.810;2.134;2022-09-23T03:30:23;3.05;;;1.88;;
70780;SDS011;59514;48.810;2.134;2022-09-23T03:32:50;3.58;;;2.03;;
70780;SDS011;59514;48.810;2.134;2022-09-23T03:35:16;2.22;;;1.60;;
70780;SDS011;59514;48.810;2.134;2022-09-23T03:42:49;4.38;;;2.05;;
70780;SDS011;59514;48.810;2.134;2022-09-23T03:45:18;2.28;;;2.08;;
70780;SDS011;59514;48.810;2.134;2022-09-23T03:47:50;3.15;;;2.08;;
70780;SDS011;59514;48.810;2.134;2022-09-23T03:50:15;3.30;;;2.20;;
70780;SDS011;59514;48.810;2.134;2022-09-23T03:52:41;3.42;;;2.13;;
70780;SDS011;59514;48.810;2.134;2022-09-23T03:55:07;2.97;;;1.98;;
70780;SDS011;59514;48.810;2.134;2022-09-23T03:57:33;3.58;;;2.20;;
70780;SDS011;59514;48.810;2.134;2022-09-23T03:59:59;2.38;;;2.08;;
70780;SDS011;59514;48.810;2.134;2022-09-23T04:02:25;3.05;;;2.00;;
70780;SDS011;59514;48.810;2.134;2022-09-23T04:04:50;1.88;;;1.70;;
70780;SDS011;59514;48.810;2.134;2022-09-23T04:07:16;2.97;;;1.90;;
70780;SDS011;59514;48.810;2.134;2022-09-23T04:09:42;2.67;;;2.42;;
70780;SDS011;59514;48.810;2.134;2022-09-23T04:12:10;2.03;;;1.90;;
70780;SDS011;59514;48.810;2.134;2022-09-23T04:14:37;3.05;;;2.20;;
70780;SDS011;59514;48.810;2.134;2022-09-23T04:17:03;3.03;;;1.80;;
70780;SDS011;59514;48.810;2.134;2022-09-23T04:19:28;3.30;;;2.08;;
70780;SDS011;59514;48.810;2.134;2022-09-23T04:21:53;4.30;;;2.30;;
70780;SDS011;59514;48.810;2.134;2022-09-23T04:24:19;3.00;;;2.25;;
70780;SDS011;59514;48.810;2.134;2022-09-23T04:26:44;3.20;;;2.28;;
70780;SDS011;59514;48.810;2.134;2022-09-23T04:29:09;2.80;;;1.85;;
70780;SDS011;59514;48.810;2.134;2022-09-23T04:31:35;6.85;;;2.10;;
70780;SDS011;59514;48.810;2.134;2022-09-23T04:34:01;5.80;;;2.20;;
70780;SDS011;59514;48.810;2.134;2022-09-23T04:36:27;2.65;;;1.80;;
70780;SDS011;59514;48.810;2.134;2022-09-23T04:38:56;3.17;;;2.00;;
70780;SDS011;59514;48.810;2.134;2022-09-23T04:41:21;3.50;;;1.75;;
70780;SDS011;59514;48.810;2.134;2022-09-23T04:43:47;3.15;;;1.83;;
70780;SDS011;59514;48.810;2.134;2022-09-23T04:46:13;3.58;;;2.30;;
70780;SDS011;59514;48.810;2.134;2022-09-23T04:48:40;3.15;;;2.13;;
70780;SDS011;59514;48.810;2.134;2022-09-23T04:51:10;2.45;;;1.98;;
70780;SDS011;59514;48.810;2.134;2022-09-23T04:53:38;4.10;;;2.10;;
70780;SDS011;59514;48.810;2.134;2022-09-23T04:56:12;2.30;;;2.10;;
70780;SDS011;59514;48.810;2.134;2022-09-23T04:58:40;3.72;;;2.03;;
70780;SDS011;59514;48.810;2.134;2022-09-23T05:01:07;6.07;;;2.20;;
70780;SDS011;59514;48.810;2.134;2022-09-23T05:03:33;3.08;;;1.75;;
70780;SDS011;59514;48.810;2.134;2022-09-23T05:05:59;4.40;;;1.88;;
70780;SDS011;59514;48.810;2.134;2022-09-23T05:08:26;3.53;;;2.38;;
70780;SDS011;59514;48.810;2.134;2022-09-23T05:10:55;3.47;;;2.20;;
70780;SDS011;59514;48.810;2.134;2022-09-23T05:13:21;3.58;;;2.25;;
70780;SDS011;59514;48.810;2.134;2022-09-23T05:15:47;5.43;;;2.15;;
70780;SDS011;59514;48.810;2.134;2022-09-23T05:18:12;4.75;;;2.10;;
70780;SDS011;59514;48.810;2.134;2022-09-23T05:20:37;2.55;;;2.13;;
70780;SDS011;59514;48.810;2.134;2022-09-23T05:23:03;4.22;;;2.35;;
70780;SDS011;59514;48.810;2.134;2022-09-23T05:25:28;2.88;;;2.05;;
70780;SDS011;59514;48.810;2.134;2022-09-23T05:27:53;5.15;;;2.28;;
70780;SDS011;59514;48.810;2.134;2022-09-23T05:30:18;3.30;;;2.05;;
70780;SDS011;59514;48.810;2.134;2022-09-23T05:32:44;3.63;;;2.45;;
70780;SDS011;59514;48.810;2.134;2022-09-23T05:35:09;4.03;;;2.10;;
70780;SDS011;59514;48.810;2.134;2022-09-23T05:37:35;4.82;;;2.28;;
70780;SDS011;59514;48.810;2.134;2022-09-23T05:40:02;4.07;;;2.40;;
70780;SDS011;59514;48.810;2.134;2022-09-23T05:42:27;3.83;;;2.38;;
70780;SDS011;59514;48.810;2.134;2022-09-23T05:44:53;3.75;;;1.90;;
70780;SDS011;59514;48.810;2.134;2022-09-23T05:47:18;3.10;;;2.17;;
70780;SDS011;59514;48.810;2.134;2022-09-23T05:49:44;2.55;;;2.30;;
70780;SDS011;59514;48.810;2.134;2022-09-23T05:52:09;3.50;;;2.17;;
70780;SDS011;59514;48.810;2.134;2022-09-23T05:54:35;2.85;;;2.42;;
70780;SDS011;59514;48.810;2.134;2022-09-23T05:57:00;4.05;;;2.70;;
70780;SDS011;59514;48.810;2.134;2022-09-23T05:59:25;8.27;;;2.53;;
70780;SDS011;59514;48.810;2.134;2022-09-23T06:01:51;8.85;;;2.50;;
70780;SDS011;59514;48.810;2.134;2022-09-23T06:04:16;4.60;;;2.35;;
70780;SDS011;59514;48.810;2.134;2022-09-23T06:06:42;5.35;;;2.40;;
70780;SDS011;59514;48.810;2.134;2022-09-23T06:09:09;10.73;;;2.70;;
70780;SDS011;59514;48.810;2.134;2022-09-23T06:11:38;4.95;;;2.22;;
70780;SDS011;59514;48.810;2.134;2022-09-23T06:14:03;6.05;;;2.47;;
70780;SDS011;59514;48.810;2.134;2022-09-23T06:16:30;6.82;;;2.70;;
70780;SDS011;59514;48.810;2.134;2022-09-23T06:18:57;4.63;;;2.88;;
70780;SDS011;59514;48.810;2.134;2022-09-23T06:21:24;4.57;;;2.45;;
70780;SDS011;59514;48.810;2.134;2022-09-23T06:23:49;5.25;;;3.00;;
70780;SDS011;59514;48.810;2.134;2022-09-23T06:26:15;5.65;;;2.42;;
70780;SDS011;59514;48.810;2.134;2022-09-23T06:28:41;6.00;;;2.90;;
70780;SDS011;59514;48.810;2.134;2022-09-23T06:31:14;6.57;;;2.53;;
70780;SDS011;59514;48.810;2.134;2022-09-23T06:33:41;5.45;;;3.00;;
70780;SDS011;59514;48.810;2.134;2022-09-23T06:36:09;5.22;;;2.22;;
70780;SDS011;59514;48.810;2.134;2022-09-23T06:38:39;5.40;;;2.60;;
70780;SDS011;59514;48.810;2.134;2022-09-23T06:41:08;3.40;;;2.30;;
70780;SDS011;59514;48.810;2.134;2022-09-23T06:43:34;8.15;;;2.67;;
70780;SDS011;59514;48.810;2.134;2022-09-23T06:46:00;5.57;;;2.50;;
70780;SDS011;59514;48.810;2.134;2022-09-23T06:48:28;7.45;;;2.70;;
70780;SDS011;59514;48.810;2.134;2022-09-23T06:50:53;7.78;;;2.53;;
70780;SDS011;59514;48.810;2.134;2022-09-23T06:53:22;4.18;;;2.60;;
70780;SDS011;59514;48.810;2.134;2022-09-23T06:55:48;6.32;;;2.58;;
70780;SDS011;59514;48.810;2.134;2022-09-23T06:58:21;7.70;;;3.20;;
70780;SDS011;59514;48.810;2.134;2022-09-23T07:00:46;5.05;;;2.65;;
70780;SDS011;59514;48.810;2.134;2022-09-23T07:03:12;9.02;;;3.22;;
70780;SDS011;59514;48.810;2.134;2022-09-23T07:05:37;5.72;;;2.90;;
70780;SDS011;59514;48.810;2.134;2022-09-23T07:08:05;7.13;;;3.20;;
70780;SDS011;59514;48.810;2.134;2022-09-23T07:10:33;5.90;;;3.15;;
70780;SDS011;59514;48.810;2.134;2022-09-23T07:13:03;6.93;;;3.00;;
70780;SDS011;59514;48.810;2.134;2022-09-23T07:15:28;5.47;;;2.85;;
70780;SDS011;59514;48.810;2.134;2022-09-23T07:17:54;6.05;;;2.72;;
70780;SDS011;59514;48.810;2.134;2022-09-23T07:20:19;7.10;;;2.88;;
70780;SDS011;59514;48.810;2.134;2022-09-23T07:22:51;5.45;;;3.10;;
70780;SDS011;59514;48.810;2.134;2022-09-23T07:25:19;9.60;;;3.50;;
70780;SDS011;59514;48.810;2.134;2022-09-23T07:27:46;8.05;;;2.85;;
70780;SDS011;59514;48.810;2.134;2022-09-23T07:30:12;5.88;;;2.72;;
70780;SDS011;59514;48.810;2.134;2022-09-23T07:32:39;6.00;;;3.10;;
70780;SDS011;59514;48.810;2.134;2022-09-23T07:35:05;6.30;;;3.00;;
70780;SDS011;59514;48.810;2.134;2022-09-23T07:37:31;7.53;;;3.38;;
70780;SDS011;59514;48.810;2.134;2022-09-23T07:39:56;5.35;;;3.20;;
70780;SDS011;59514;48.810;2.134;2022-09-23T07:42:21;7.68;;;3.20;;
70780;SDS011;59514;48.810;2.134;2022-09-23T07:44:47;7.82;;;3.20;;
70780;SDS011;59514;48.810;2.134;2022-09-23T07:47:12;4.75;;;2.75;;
70780;SDS011;59514;48.810;2.134;2022-09-23T07:49:38;8.77;;;3.25;;
70780;SDS011;59514;48.810;2.134;2022-09-23T07:52:05;11.98;;;3.97;;
70780;SDS011;59514;48.810;2.134;2022-09-23T07:54:30;9.15;;;3.70;;
70780;SDS011;59514;48.810;2.134;2022-09-23T07:56:56;8.38;;;4.13;;
70780;SDS011;59514;48.810;2.134;2022-09-23T07:59:23;13.23;;;4.38;;
70780;SDS011;59514;48.810;2.134;2022-09-23T08:01:51;12.30;;;3.90;;
70780;SDS011;59514;48.810;2.134;2022-09-23T08:06:47;7.78;;;2.90;;
70780;SDS011;59514;48.810;2.134;2022-09-23T08:09:16;7.15;;;2.45;;
70780;SDS011;59514;48.810;2.134;2022-09-23T08:11:43;3.97;;;2.50;;
70780;SDS011;59514;48.810;2.134;2022-09-23T08:14:12;6.20;;;2.85;;
70780;SDS011;59514;48.810;2.134;2022-09-23T08:16:41;8.75;;;2.65;;
70780;SDS011;59514;48.810;2.134;2022-09-23T08:19:07;7.72;;;2.58;;
70780;SDS011;59514;48.810;2.134;2022-09-23T08:21:33;8.40;;;2.47;;
70780;SDS011;59514;48.810;2.134;2022-09-23T08:23:58;7.93;;;2.30;;
70780;SDS011;59514;48.810;2.134;2022-09-23T08:26:24;8.45;;;2.60;;
70780;SDS011;59514;48.810;2.134;2022-09-23T08:28:50;6.93;;;2.53;;
70780;SDS011;59514;48.810;2.134;2022-09-23T08:31:19;5.72;;;2.28;;
70780;SDS011;59514;48.810;2.134;2022-09-23T08:33:46;7.03;;;2.38;;
70780;SDS011;59514;48.810;2.134;2022-09-23T08:36:11;6.47;;;2.15;;
70780;SDS011;59514;48.810;2.134;2022-09-23T08:38:36;6.65;;;2.50;;
70780;SDS011;59514;48.810;2.134;2022-09-23T08:41:11;5.55;;;2.67;;
70780;SDS011;59514;48.810;2.134;2022-09-23T08:43:46;6.68;;;2.85;;
70780;SDS011;59514;48.810;2.134;2022-09-23T08:46:17;7.57;;;2.45;;
70780;SDS011;59514;48.810;2.134;2022-09-23T08:48:48;5.35;;;2.10;;
70780;SDS011;59514;48.810;2.134;2022-09-23T08:51:40;4.28;;;2.42;;
70780;SDS011;59514;48.810;2.134;2022-09-23T08:54:04;4.43;;;2.13;;
70780;SDS011;59514;48.810;2.134;2022-09-23T08:56:29;4.75;;;2.38;;
70780;SDS011;59514;48.810;2.134;2022-09-23T09:06:43;4.90;;;2.03;;
70780;SDS011;59514;48.810;2.134;2022-09-23T09:09:12;6.13;;;2.20;;
70780;SDS011;59514;48.810;2.134;2022-09-23T09:11:46;4.03;;;2.15;;
70780;SDS011;59514;48.810;2.134;2022-09-23T09:14:18;6.78;;;2.50;;
70780;SDS011;59514;48.810;2.134;2022-09-23T09:16:57;6.00;;;2.30;;
70780;SDS011;59514;48.810;2.134;2022-09-23T09:25:16;6.57;;;2.58;;
70780;SDS011;59514;48.810;2.134;2022-09-23T09:27:47;4.68;;;2.50;;
70780;SDS011;59514;48.810;2.134;2022-09-23T09:30:13;6.10;;;2.70;;
70780;SDS011;59514;48.810;2.134;2022-09-23T09:37:59;4.00;;;2.40;;
70780;SDS011;59514;48.810;2.134;2022-09-23T09:40:25;8.10;;;2.70;;
70780;SDS011;59514;48.810;2.134;2022-09-23T09:42:51;5.22;;;2.20;;
70780;SDS011;59514;48.810;2.134;2022-09-23T09:45:19;5.45;;;2.40;;
70780;SDS011;59514;48.810;2.134;2022-09-23T09:55:50;5.07;;;2.22;;
70780;SDS011;59514;48.810;2.134;2022-09-23T09:58:22;9.80;;;2.67;;
70780;SDS011;59514;48.810;2.134;2022-09-23T10:00:50;8.32;;;2.63;;
70780;SDS011;59514;48.810;2.134;2022-09-23T10:08:15;4.50;;;2.45;;
70780;SDS011;59514;48.810;2.134;2022-09-23T10:13:26;4.82;;;2.40;;
70780;SDS011;59514;48.810;2.134;2022-09-23T10:15:54;7.65;;;2.88;;
70780;SDS011;59514;48.810;2.134;2022-09-23T10:18:36;8.35;;;2.38;;
70780;SDS011;59514;48.810;2.134;2022-09-23T10:21:23;4.60;;;2.10;;
70780;SDS011;59514;48.810;2.134;2022-09-23T10:23:50;2.67;;;2.00;;
70780;SDS011;59514;48.810;2.134;2022-09-23T10:26:28;4.70;;;2.05;;
70780;SDS011;59514;48.810;2.134;2022-09-23T10:28:56;4.90;;;2.80;;
70780;SDS011;59514;48.810;2.134;2022-09-23T10:31:30;4.57;;;2.63;;
70780;SDS011;59514;48.810;2.134;2022-09-23T10:33:58;3.88;;;2.10;;
70780;SDS011;59514;48.810;2.134;2022-09-23T10:36:26;4.13;;;2.28;;
70780;SDS011;59514;48.810;2.134;2022-09-23T10:39:03;5.80;;;2.90;;
70780;SDS011;59514;48.810;2.134;2022-09-23T10:41:58;10.02;;;2.58;;
70780;SDS011;59514;48.810;2.134;2022-09-23T10:45:08;4.47;;;2.00;;
70780;SDS011;59514;48.810;2.134;2022-09-23T10:50:43;5.82;;;2.10;;
70780;SDS011;59514;48.810;2.134;2022-09-23T11:07:45;3.25;;;1.83;;
70780;SDS011;59514;48.810;2.134;2022-09-23T11:10:30;4.82;;;1.85;;
70780;SDS011;59514;48.810;2.134;2022-09-23T11:22:00;2.90;;;2.00;;
70780;SDS011;59514;48.810;2.134;2022-09-23T11:24:52;2.42;;;1.77;;
70780;SDS011;59514;48.810;2.134;2022-09-23T11:30:33;1.98;;;1.73;;
70780;SDS011;59514;48.810;2.134;2022-09-23T11:35:57;2.37;;;1.53;;
70780;SDS011;59514;48.810;2.134;2022-09-23T11:43:51;2.25;;;1.33;;
70780;SDS011;59514;48.810;2.134;2022-09-23T11:46:38;4.85;;;1.20;;
70780;SDS011;59514;48.810;2.134;2022-09-23T11:56:50;3.35;;;1.60;;
70780;SDS011;59514;48.810;2.134;2022-09-23T12:01:47;1.63;;;1.10;;
70780;SDS011;59514;48.810;2.134;2022-09-23T12:06:57;3.57;;;1.40;;
70780;SDS011;59514;48.810;2.134;2022-09-23T12:09:33;1.73;;;1.40;;
70780;SDS011;59514;48.810;2.134;2022-09-23T12:25:29;4.05;;;1.50;;
70780;SDS011;59514;48.810;2.134;2022-09-23T12:28:03;6.20;;;1.75;;
70780;SDS011;59514;48.810;2.134;2022-09-23T12:31:02;6.22;;;1.70;;
70780;SDS011;59514;48.810;2.134;2022-09-23T12:33:32;3.25;;;1.33;;
70780;SDS011;59514;48.810;2.134;2022-09-23T12:36:03;3.95;;;1.70;;
70780;SDS011;59514;48.810;2.134;2022-09-23T12:38:35;3.20;;;1.50;;
70780;SDS011;59514;48.810;2.134;2022-09-23T12:43:49;2.58;;;1.38;;
70780;SDS011;59514;48.810;2.134;2022-09-23T12:46:38;4.45;;;1.63;;
70780;SDS011;59514;48.810;2.134;2022-09-23T12:49:34;2.70;;;1.55;;
70780;SDS011;59514;48.810;2.134;2022-09-23T12:54:34;3.25;;;1.52;;
70780;SDS011;59514;48.810;2.134;2022-09-23T12:57:01;3.63;;;1.55;;
70780;SDS011;59514;48.810;2.134;2022-09-23T12:59:54;2.05;;;1.10;;
70780;SDS011;59514;48.810;2.134;2022-09-23T13:08:03;3.45;;;1.20;;
70780;SDS011;59514;48.810;2.134;2022-09-23T13:10:42;1.85;;;1.20;;
70780;SDS011;59514;48.810;2.134;2022-09-23T13:13:45;2.50;;;1.35;;
70780;SDS011;59514;48.810;2.134;2022-09-23T13:16:12;2.58;;;1.50;;
70780;SDS011;59514;48.810;2.134;2022-09-23T13:21:14;2.05;;;1.48;;
70780;SDS011;59514;48.810;2.134;2022-09-23T13:24:02;4.75;;;1.50;;
70780;SDS011;59514;48.810;2.134;2022-09-23T13:26:46;2.47;;;1.45;;
70780;SDS011;59514;48.810;2.134;2022-09-23T13:29:16;3.53;;;1.23;;
70780;SDS011;59514;48.810;2.134;2022-09-23T13:31:47;1.67;;;0.82;;
70780;SDS011;59514;48.810;2.134;2022-09-23T13:34:14;2.17;;;1.42;;
70780;SDS011;59514;48.810;2.134;2022-09-23T13:36:44;2.90;;;1.30;;
70780;SDS011;59514;48.810;2.134;2022-09-23T13:41:45;2.83;;;1.00;;
70780;SDS011;59514;48.810;2.134;2022-09-23T13:44:13;2.45;;;1.13;;
70780;SDS011;59514;48.810;2.134;2022-09-23T13:46:45;4.18;;;0.93;;
70780;SDS011;59514;48.810;2.134;2022-09-23T13:49:22;4.50;;;1.23;;
70780;SDS011;59514;48.810;2.134;2022-09-23T13:51:52;2.60;;;1.15;;
70780;SDS011;59514;48.810;2.134;2022-09-23T13:54:29;3.92;;;1.40;;
70780;SDS011;59514;48.810;2.134;2022-09-23T13:56:56;2.53;;;1.10;;
70780;SDS011;59514;48.810;2.134;2022-09-23T13:59:23;2.45;;;1.35;;
70780;SDS011;59514;48.810;2.134;2022-09-23T14:02:04;4.63;;;1.23;;
70780;SDS011;59514;48.810;2.134;2022-09-23T14:04:40;2.20;;;1.20;;
70780;SDS011;59514;48.810;2.134;2022-09-23T14:07:06;1.83;;;1.00;;
70780;SDS011;59514;48.810;2.134;2022-09-23T14:09:34;3.58;;;1.15;;
70780;SDS011;59514;48.810;2.134;2022-09-23T14:12:03;5.43;;;1.55;;
70780;SDS011;59514;48.810;2.134;2022-09-23T14:14:30;3.03;;;1.20;;
70780;SDS011;59514;48.810;2.134;2022-09-23T14:16:59;3.60;;;1.42;;
70780;SDS011;59514;48.810;2.134;2022-09-23T14:19:26;2.30;;;1.23;;
70780;SDS011;59514;48.810;2.134;2022-09-23T14:21:52;2.25;;;1.25;;
70780;SDS011;59514;48.810;2.134;2022-09-23T14:24:22;3.38;;;1.75;;
70780;SDS011;59514;48.810;2.134;2022-09-23T14:26:55;3.63;;;1.85;;
70780;SDS011;59514;48.810;2.134;2022-09-23T14:29:31;2.22;;;1.70;;
70780;SDS011;59514;48.810;2.134;2022-09-23T14:32:00;3.40;;;1.75;;
70780;SDS011;59514;48.810;2.134;2022-09-23T14:34:42;4.13;;;1.80;;
70780;SDS011;59514;48.810;2.134;2022-09-23T14:40:02;3.22;;;1.40;;
70780;SDS011;59514;48.810;2.134;2022-09-23T14:42:30;2.72;;;1.65;;
70780;SDS011;59514;48.810;2.134;2022-09-23T14:45:02;3.28;;;1.30;;
70780;SDS011;59514;48.810;2.134;2022-09-23T14:47:30;3.22;;;1.70;;
70780;SDS011;59514;48.810;2.134;2022-09-23T14:49:56;3.30;;;2.17;;
70780;SDS011;59514;48.810;2.134;2022-09-23T14:52:50;3.10;;;1.70;;
70780;SDS011;59514;48.810;2.134;2022-09-23T14:55:16;2.38;;;1.42;;
70780;SDS011;59514;48.810;2.134;2022-09-23T14:57:42;4.00;;;1.80;;
70780;SDS011;59514;48.810;2.134;2022-09-23T15:02:38;3.10;;;1.70;;
70780;SDS011;59514;48.810;2.134;2022-09-23T15:05:07;1.63;;;1.35;;
70780;SDS011;59514;48.810;2.134;2022-09-23T15:07:51;1.98;;;1.45;;
70780;SDS011;59514;48.810;2.134;2022-09-23T15:10:25;3.08;;;1.30;;
70780;SDS011;59514;48.810;2.134;2022-09-23T15:12:53;2.90;;;1.83;;
70780;SDS011;59514;48.810;2.134;2022-09-23T15:15:27;2.42;;;1.45;;
70780;SDS011;59514;48.810;2.134;2022-09-23T15:17:52;4.72;;;1.40;;
70780;SDS011;59514;48.810;2.134;2022-09-23T15:20:22;5.22;;;1.98;;
70780;SDS011;59514;48.810;2.134;2022-09-23T15:22:51;4.30;;;1.67;;
70780;SDS011;59514;48.810;2.134;2022-09-23T15:25:20;3.80;;;1.73;;
70780;SDS011;59514;48.810;2.134;2022-09-23T15:30:35;4.18;;;1.42;;
70780;SDS011;59514;48.810;2.134;2022-09-23T15:33:02;1.73;;;1.55;;
70780;SDS011;59514;48.810;2.134;2022-09-23T15:35:28;3.60;;;1.90;;
70780;SDS011;59514;48.810;2.134;2022-09-23T15:37:56;4.35;;;2.00;;
70780;SDS011;59514;48.810;2.134;2022-09-23T15:40:28;3.22;;;1.70;;
70780;SDS011;59514;48.810;2.134;2022-09-23T15:42:56;1.92;;;1.50;;
70780;SDS011;59514;48.810;2.134;2022-09-23T15:45:26;4.10;;;1.50;;
70780;SDS011;59514;48.810;2.134;2022-09-23T15:47:55;4.65;;;1.63;;
70780;SDS011;59514;48.810;2.134;2022-09-23T15:50:24;5.25;;;1.80;;
70780;SDS011;59514;48.810;2.134;2022-09-23T15:52:51;3.72;;;1.95;;
70780;SDS011;59514;48.810;2.134;2022-09-23T15:55:17;4.10;;;1.67;;
70780;SDS011;59514;48.810;2.134;2022-09-23T15:57:47;3.83;;;2.10;;
70780;SDS011;59514;48.810;2.134;2022-09-23T16:00:14;4.10;;;1.98;;
70780;SDS011;59514;48.810;2.134;2022-09-23T16:02:40;3.05;;;1.73;;
70780;SDS011;59514;48.810;2.134;2022-09-23T16:05:13;3.85;;;1.98;;
70780;SDS011;59514;48.810;2.134;2022-09-23T16:08:05;3.40;;;2.00;;
70780;SDS011;59514;48.810;2.134;2022-09-23T16:10:33;3.88;;;1.92;;
70780;SDS011;59514;48.810;2.134;2022-09-23T16:13:00;4.45;;;1.70;;
70780;SDS011;59514;48.810;2.134;2022-09-23T16:15:28;6.88;;;1.75;;
70780;SDS011;59514;48.810;2.134;2022-09-23T16:17:55;2.30;;;1.88;;
70780;SDS011;59514;48.810;2.134;2022-09-23T16:20:20;2.45;;;1.55;;
70780;SDS011;59514;48.810;2.134;2022-09-23T16:23:20;6.43;;;2.08;;
70780;SDS011;59514;48.810;2.134;2022-09-23T16:26:23;3.35;;;1.55;;
70780;SDS011;59514;48.810;2.134;2022-09-23T16:28:48;6.45;;;2.08;;
70780;SDS011;59514;48.810;2.134;2022-09-23T16:31:15;4.95;;;1.70;;
70780;SDS011;59514;48.810;2.134;2022-09-23T16:33:41;3.15;;;1.40;;
70780;SDS011;59514;48.810;2.134;2022-09-23T16:38:54;3.42;;;1.95;;
70780;SDS011;59514;48.810;2.134;2022-09-23T16:41:20;4.60;;;1.80;;
70780;SDS011;59514;48.810;2.134;2022-09-23T16:43:47;4.40;;;1.80;;
70780;SDS011;59514;48.810;2.134;2022-09-23T16:46:17;4.20;;;2.13;;
70780;SDS011;59514;48.810;2.134;2022-09-23T16:48:43;4.75;;;2.00;;
70780;SDS011;59514;48.810;2.134;2022-09-23T16:51:16;4.47;;;1.92;;
70780;SDS011;59514;48.810;2.134;2022-09-23T16:53:44;2.67;;;1.70;;
70780;SDS011;59514;48.810;2.134;2022-09-23T16:56:13;5.07;;;2.10;;
70780;SDS011;59514;48.810;2.134;2022-09-23T16:58:41;4.50;;;1.98;;
70780;SDS011;59514;48.810;2.134;2022-09-23T17:01:08;3.05;;;2.00;;
70780;SDS011;59514;48.810;2.134;2022-09-23T17:04:04;4.10;;;1.80;;
70780;SDS011;59514;48.810;2.134;2022-09-23T17:06:31;5.40;;;1.70;;
70780;SDS011;59514;48.810;2.134;2022-09-23T17:08:57;3.92;;;2.03;;
70780;SDS011;59514;48.810;2.134;2022-09-23T17:11:23;3.25;;;1.92;;
70780;SDS011;59514;48.810;2.134;2022-09-23T17:13:49;7.72;;;2.20;;
70780;SDS011;59514;48.810;2.134;2022-09-23T17:16:25;7.05;;;2.10;;
70780;SDS011;59514;48.810;2.134;2022-09-23T17:18:52;3.67;;;1.85;;
70780;SDS011;59514;48.810;2.134;2022-09-23T17:21:21;5.28;;;1.90;;
70780;SDS011;59514;48.810;2.134;2022-09-23T17:23:53;3.70;;;2.30;;
70780;SDS011;59514;48.810;2.134;2022-09-23T17:26:20;5.72;;;2.00;;
70780;SDS011;59514;48.810;2.134;2022-09-23T17:28:48;5.30;;;2.55;;
70780;SDS011;59514;48.810;2.134;2022-09-23T17:31:15;4.28;;;2.30;;
70780;SDS011;59514;48.810;2.134;2022-09-23T17:33:41;3.97;;;2.33;;
70780;SDS011;59514;48.810;2.134;2022-09-23T17:36:07;5.57;;;2.20;;
70780;SDS011;59514;48.810;2.134;2022-09-23T17:38:34;6.40;;;3.08;;
70780;SDS011;59514;48.810;2.134;2022-09-23T17:41:00;7.50;;;2.70;;
70780;SDS011;59514;48.810;2.134;2022-09-23T17:43:26;5.85;;;2.70;;
70780;SDS011;59514;48.810;2.134;2022-09-23T17:45:53;3.92;;;2.60;;
70780;SDS011;59514;48.810;2.134;2022-09-23T17:48:22;5.38;;;3.13;;
70780;SDS011;59514;48.810;2.134;2022-09-23T17:50:55;6.47;;;4.05;;
70780;SDS011;59514;48.810;2.134;2022-09-23T17:53:22;7.18;;;3.97;;
70780;SDS011;59514;48.810;2.134;2022-09-23T17:55:55;5.97;;;4.30;;
70780;SDS011;59514;48.810;2.134;2022-09-23T17:58:25;7.63;;;3.88;;
70780;SDS011;59514;48.810;2.134;2022-09-23T18:00:52;8.60;;;4.22;;
70780;SDS011;59514;48.810;2.134;2022-09-23T18:03:18;12.40;;;6.47;;
70780;SDS011;59514;48.810;2.134;2022-09-23T18:05:43;11.88;;;7.30;;